PWSweather.com
Personal Weather Stations
Station Observations
MENWDWX1
Menstrie, ScotlandGB

MenstrieScotlandGB

Lat: 56.148322, Lon: -3.85483

Elevation: 62

Station Type: Davis Vantage Pro 2

High Low Average
Temperature 49.4°F9.7°C 33.9°F1.1°C 43.1°F6.2°C
Dew Point 40.6°F4.8°C 27.8°F-2.3°C 35.4°F1.9°C
Winds 17.3 mph 27.8 kmh Calm Calm 10.0 mph E16.1 kmh E
Wind Gusts 26.5 mph42.6 kmh -- 14.0 mph22.5 kmh
Humidity 79% 69% 74%
Pressure 29.68 in1005.1 mb 29.29 in991.9 mb -
Precipitation 0.01 in0.3 mm - -
Hour Temp Dew Point Humidity Winds Wind Gusts Pressure Precip Precip Rate Daily Precip Total
12:00 AM 35.2°F1.8°C 29.3°F-1.5°C 79% Calm Calm -- 29.68 in1005.1 mb - 0.00 in0.0 mm 0.00 in0.0 mm
12:05 AM 35.2°F1.8°C 29.3°F-1.5°C 79% 2.3 mph ENE3.7 kmh ENE 3.5 mph5.6 kmh 29.68 in1005.1 mb - 0.00 in0.0 mm 0.00 in0.0 mm
12:10 AM 35.3°F1.8°C 29.4°F-1.4°C 79% 2.3 mph ENE3.7 kmh ENE 2.3 mph3.7 kmh 29.67 in1004.7 mb - 0.00 in0.0 mm 0.00 in0.0 mm
12:15 AM 35.2°F1.8°C 29.3°F-1.5°C 79% 1.2 mph ENE1.9 kmh ENE 2.3 mph3.7 kmh 29.67 in1004.7 mb - 0.00 in0.0 mm 0.00 in0.0 mm
12:20 AM 35.1°F1.7°C 29.2°F-1.6°C 79% 1.2 mph E1.9 kmh E 2.3 mph3.7 kmh 29.67 in1004.7 mb - 0.00 in0.0 mm 0.00 in0.0 mm
12:25 AM 35.0°F1.7°C 29.1°F-1.6°C 79% 1.2 mph E1.9 kmh E 3.5 mph5.6 kmh 29.67 in1004.7 mb - 0.00 in0.0 mm 0.00 in0.0 mm
12:30 AM 34.9°F1.6°C 28.7°F-1.8°C 78% Calm Calm 1.2 mph1.9 kmh 29.67 in1004.7 mb - 0.00 in0.0 mm 0.00 in0.0 mm
12:35 AM 34.8°F1.6°C 28.6°F-1.9°C 78% 1.2 mph NE1.9 kmh NE 3.5 mph5.6 kmh 29.67 in1004.7 mb - 0.00 in0.0 mm 0.00 in0.0 mm
12:40 AM 34.8°F1.6°C 28.6°F-1.9°C 78% 2.3 mph NE3.7 kmh NE 4.6 mph7.4 kmh 29.67 in1004.7 mb - 0.00 in0.0 mm 0.00 in0.0 mm
12:45 AM 34.7°F1.5°C 28.5°F-1.9°C 78% 3.5 mph ENE5.6 kmh ENE 5.8 mph9.3 kmh 29.67 in1004.7 mb - 0.00 in0.0 mm 0.00 in0.0 mm
12:50 AM 34.7°F1.5°C 28.5°F-1.9°C 78% 3.5 mph E5.6 kmh E 3.5 mph5.6 kmh 29.66 in1004.4 mb - 0.00 in0.0 mm 0.00 in0.0 mm
12:55 AM 34.7°F1.5°C 28.5°F-1.9°C 78% 3.5 mph E5.6 kmh E 3.5 mph5.6 kmh 29.66 in1004.4 mb - 0.00 in0.0 mm 0.00 in0.0 mm
01:00 AM 34.7°F1.5°C 28.5°F-1.9°C 78% 2.3 mph ENE3.7 kmh ENE 3.5 mph5.6 kmh 29.66 in1004.4 mb - 0.00 in0.0 mm 0.00 in0.0 mm
01:05 AM 34.8°F1.6°C 28.6°F-1.9°C 78% 1.2 mph E1.9 kmh E 1.2 mph1.9 kmh 29.66 in1004.4 mb - 0.00 in0.0 mm 0.00 in0.0 mm
01:10 AM 34.7°F1.5°C 28.5°F-1.9°C 78% 1.2 mph E1.9 kmh E 2.3 mph3.7 kmh 29.66 in1004.4 mb - 0.00 in0.0 mm 0.00 in0.0 mm
01:15 AM 34.5°F1.4°C 28.3°F-2.1°C 78% Calm Calm 1.2 mph1.9 kmh 29.66 in1004.4 mb - 0.00 in0.0 mm 0.00 in0.0 mm
01:20 AM 34.4°F1.3°C 28.2°F-2.1°C 78% 1.2 mph E1.9 kmh E 1.2 mph1.9 kmh 29.66 in1004.4 mb - 0.00 in0.0 mm 0.00 in0.0 mm
01:25 AM 34.2°F1.2°C 28.0°F-2.2°C 78% Calm Calm -- 29.66 in1004.4 mb - 0.00 in0.0 mm 0.00 in0.0 mm
01:30 AM 34.1°F1.2°C 28.0°F-2.2°C 78% 1.2 mph E1.9 kmh E 2.3 mph3.7 kmh 29.66 in1004.4 mb - 0.00 in0.0 mm 0.00 in0.0 mm
01:35 AM 34.0°F1.1°C 27.9°F-2.3°C 78% 1.2 mph E1.9 kmh E 1.2 mph1.9 kmh 29.66 in1004.4 mb - 0.00 in0.0 mm 0.00 in0.0 mm
01:40 AM 34.0°F1.1°C 27.9°F-2.3°C 78% Calm Calm 1.2 mph1.9 kmh 29.65 in1004.1 mb - 0.00 in0.0 mm 0.00 in0.0 mm
01:45 AM 33.9°F1.1°C 27.8°F-2.3°C 78% 1.2 mph E1.9 kmh E 2.3 mph3.7 kmh 29.65 in1004.1 mb - 0.00 in0.0 mm 0.00 in0.0 mm
01:50 AM 33.9°F1.1°C 27.8°F-2.3°C 78% 2.3 mph E3.7 kmh E 3.5 mph5.6 kmh 29.65 in1004.1 mb - 0.00 in0.0 mm 0.00 in0.0 mm
01:55 AM 33.9°F1.1°C 27.8°F-2.3°C 78% 3.5 mph ENE5.6 kmh ENE 3.5 mph5.6 kmh 29.64 in1003.7 mb - 0.00 in0.0 mm 0.00 in0.0 mm
02:00 AM 34.1°F1.2°C 28.0°F-2.2°C 78% 4.6 mph ENE7.4 kmh ENE 6.9 mph11.1 kmh 29.64 in1003.7 mb - 0.00 in0.0 mm 0.00 in0.0 mm
02:05 AM 34.4°F1.3°C 28.2°F-2.1°C 78% 2.3 mph NE3.7 kmh NE 3.5 mph5.6 kmh 29.64 in1003.7 mb - 0.00 in0.0 mm 0.00 in0.0 mm
02:10 AM 34.4°F1.3°C 28.0°F-2.2°C 77% 2.3 mph NE3.7 kmh NE 3.5 mph5.6 kmh 29.64 in1003.7 mb - 0.00 in0.0 mm 0.00 in0.0 mm
02:15 AM 34.4°F1.3°C 27.9°F-2.3°C 77% 4.6 mph E7.4 kmh E 5.8 mph9.3 kmh 29.64 in1003.7 mb - 0.00 in0.0 mm 0.00 in0.0 mm
02:20 AM 34.5°F1.4°C 28.0°F-2.2°C 77% 3.5 mph E5.6 kmh E 4.6 mph7.4 kmh 29.64 in1003.7 mb - 0.00 in0.0 mm 0.00 in0.0 mm
02:25 AM 34.6°F1.4°C 28.1°F-2.2°C 77% 3.5 mph E5.6 kmh E 3.5 mph5.6 kmh 29.64 in1003.7 mb - 0.00 in0.0 mm 0.00 in0.0 mm
02:30 AM 34.6°F1.4°C 28.1°F-2.2°C 77% 3.5 mph E5.6 kmh E 5.8 mph9.3 kmh 29.64 in1003.7 mb - 0.00 in0.0 mm 0.00 in0.0 mm
02:35 AM 34.5°F1.4°C 28.0°F-2.2°C 77% 4.6 mph ESE7.4 kmh ESE 6.9 mph11.1 kmh 29.63 in1003.4 mb - 0.00 in0.0 mm 0.00 in0.0 mm
02:40 AM 34.5°F1.4°C 28.0°F-2.2°C 77% 2.3 mph ESE3.7 kmh ESE 3.5 mph5.6 kmh 29.63 in1003.4 mb - 0.00 in0.0 mm 0.00 in0.0 mm
02:45 AM 34.5°F1.4°C 28.0°F-2.2°C 77% 3.5 mph SE5.6 kmh SE 5.8 mph9.3 kmh 29.63 in1003.4 mb - 0.00 in0.0 mm 0.00 in0.0 mm
02:50 AM 34.6°F1.4°C 28.1°F-2.2°C 77% 3.5 mph E5.6 kmh E 5.8 mph9.3 kmh 29.62 in1003.0 mb - 0.00 in0.0 mm 0.00 in0.0 mm
02:55 AM 34.9°F1.6°C 28.4°F-2.0°C 77% 4.6 mph E7.4 kmh E 5.8 mph9.3 kmh 29.62 in1003.0 mb - 0.00 in0.0 mm 0.00 in0.0 mm
03:00 AM 35.1°F1.7°C 28.6°F-1.9°C 77% 3.5 mph ESE5.6 kmh ESE 8.1 mph13.0 kmh 29.62 in1003.0 mb - 0.00 in0.0 mm 0.00 in0.0 mm
03:05 AM 35.5°F1.9°C 29.0°F-1.7°C 77% 4.6 mph E7.4 kmh E 5.8 mph9.3 kmh 29.62 in1003.0 mb - 0.00 in0.0 mm 0.00 in0.0 mm
03:10 AM 36.0°F2.2°C 29.5°F-1.4°C 77% 3.5 mph ESE5.6 kmh ESE 9.2 mph14.8 kmh 29.61 in1002.7 mb - 0.00 in0.0 mm 0.00 in0.0 mm
03:15 AM 36.2°F2.3°C 29.7°F-1.3°C 77% 5.8 mph ESE9.3 kmh ESE 8.1 mph13.0 kmh 29.61 in1002.7 mb - 0.00 in0.0 mm 0.00 in0.0 mm
03:20 AM 36.4°F2.4°C 29.8°F-1.2°C 77% 5.8 mph E9.3 kmh E 9.2 mph14.8 kmh 29.61 in1002.7 mb - 0.00 in0.0 mm 0.00 in0.0 mm
03:25 AM 36.5°F2.5°C 29.6°F-1.3°C 76% 5.8 mph E9.3 kmh E 9.2 mph14.8 kmh 29.61 in1002.7 mb - 0.00 in0.0 mm 0.00 in0.0 mm
03:30 AM 36.6°F2.6°C 29.7°F-1.3°C 76% 5.8 mph E9.3 kmh E 9.2 mph14.8 kmh 29.61 in1002.7 mb - 0.00 in0.0 mm 0.00 in0.0 mm
03:35 AM 36.6°F2.6°C 29.7°F-1.3°C 76% 4.6 mph ESE7.4 kmh ESE 6.9 mph11.1 kmh 29.61 in1002.7 mb - 0.00 in0.0 mm 0.00 in0.0 mm
03:40 AM 36.6°F2.6°C 29.8°F-1.2°C 76% 5.8 mph ESE9.3 kmh ESE 10.4 mph16.7 kmh 29.61 in1002.7 mb - 0.00 in0.0 mm 0.00 in0.0 mm
03:45 AM 36.8°F2.7°C 30.0°F-1.1°C 76% 4.6 mph E7.4 kmh E 9.2 mph14.8 kmh 29.60 in1002.4 mb - 0.00 in0.0 mm 0.00 in0.0 mm
03:50 AM 37.0°F2.8°C 30.1°F-1.1°C 76% 6.9 mph E11.1 kmh E 8.1 mph13.0 kmh 29.60 in1002.4 mb - 0.00 in0.0 mm 0.00 in0.0 mm
03:55 AM 37.0°F2.8°C 30.1°F-1.1°C 76% 6.9 mph E11.1 kmh E 10.4 mph16.7 kmh 29.60 in1002.4 mb - 0.00 in0.0 mm 0.00 in0.0 mm
04:00 AM 37.1°F2.8°C 30.2°F-1.0°C 76% 5.8 mph ESE9.3 kmh ESE 9.2 mph14.8 kmh 29.60 in1002.4 mb - 0.00 in0.0 mm 0.00 in0.0 mm
04:05 AM 37.1°F2.8°C 30.2°F-1.0°C 76% 4.6 mph SE7.4 kmh SE 6.9 mph11.1 kmh 29.60 in1002.4 mb - 0.00 in0.0 mm 0.00 in0.0 mm
04:10 AM 36.9°F2.7°C 30.0°F-1.1°C 76% 4.6 mph ESE7.4 kmh ESE 6.9 mph11.1 kmh 29.60 in1002.4 mb - 0.00 in0.0 mm 0.00 in0.0 mm
04:15 AM 36.7°F2.6°C 29.8°F-1.2°C 76% 5.8 mph E9.3 kmh E 9.2 mph14.8 kmh 29.60 in1002.4 mb - 0.00 in0.0 mm 0.00 in0.0 mm
04:20 AM 36.7°F2.6°C 29.9°F-1.2°C 76% 8.1 mph E13.0 kmh E 11.5 mph18.5 kmh 29.59 in1002.0 mb - 0.00 in0.0 mm 0.00 in0.0 mm
04:25 AM 37.1°F2.8°C 30.2°F-1.0°C 76% 8.1 mph E13.0 kmh E 11.5 mph18.5 kmh 29.59 in1002.0 mb - 0.00 in0.0 mm 0.00 in0.0 mm
04:30 AM 37.5°F3.1°C 30.3°F-0.9°C 75% 6.9 mph E11.1 kmh E 9.2 mph14.8 kmh 29.59 in1002.0 mb - 0.00 in0.0 mm 0.00 in0.0 mm
04:35 AM 37.8°F3.2°C 30.6°F-0.8°C 75% 6.9 mph E11.1 kmh E 10.4 mph16.7 kmh 29.59 in1002.0 mb - 0.00 in0.0 mm 0.00 in0.0 mm
04:40 AM 37.9°F3.3°C 30.7°F-0.7°C 75% 5.8 mph E9.3 kmh E 8.1 mph13.0 kmh 29.59 in1002.0 mb - 0.00 in0.0 mm 0.00 in0.0 mm
04:45 AM 38.0°F3.3°C 30.8°F-0.7°C 75% 8.1 mph E13.0 kmh E 9.2 mph14.8 kmh 29.59 in1002.0 mb - 0.00 in0.0 mm 0.00 in0.0 mm
04:50 AM 38.0°F3.3°C 30.8°F-0.7°C 75% 4.6 mph ESE7.4 kmh ESE 8.1 mph13.0 kmh 29.59 in1002.0 mb - 0.00 in0.0 mm 0.00 in0.0 mm
04:55 AM 38.0°F3.3°C 30.8°F-0.7°C 75% 5.8 mph ESE9.3 kmh ESE 9.2 mph14.8 kmh 29.59 in1002.0 mb - 0.00 in0.0 mm 0.00 in0.0 mm
05:00 AM 38.0°F3.3°C 30.8°F-0.7°C 75% 3.5 mph E5.6 kmh E 3.5 mph5.6 kmh 29.59 in1002.0 mb - 0.00 in0.0 mm 0.00 in0.0 mm
05:05 AM 37.9°F3.3°C 30.7°F-0.7°C 75% 4.6 mph ESE7.4 kmh ESE 6.9 mph11.1 kmh 29.59 in1002.0 mb - 0.00 in0.0 mm 0.00 in0.0 mm
05:10 AM 37.9°F3.3°C 30.7°F-0.7°C 75% 6.9 mph ENE11.1 kmh ENE 9.2 mph14.8 kmh 29.59 in1002.0 mb - 0.00 in0.0 mm 0.00 in0.0 mm
05:15 AM 37.8°F3.2°C 30.9°F-0.6°C 76% 2.3 mph E3.7 kmh E 3.5 mph5.6 kmh 29.59 in1002.0 mb - 0.00 in0.0 mm 0.00 in0.0 mm
05:20 AM 37.8°F3.2°C 30.9°F-0.6°C 76% 2.3 mph E3.7 kmh E 5.8 mph9.3 kmh 29.59 in1002.0 mb - 0.00 in0.0 mm 0.00 in0.0 mm
05:25 AM 37.8°F3.2°C 30.9°F-0.6°C 76% 2.3 mph SE3.7 kmh SE 3.5 mph5.6 kmh 29.59 in1002.0 mb - 0.00 in0.0 mm 0.00 in0.0 mm
05:30 AM 38.0°F3.3°C 31.1°F-0.5°C 76% 5.8 mph ESE9.3 kmh ESE 9.2 mph14.8 kmh 29.59 in1002.0 mb - 0.00 in0.0 mm 0.00 in0.0 mm
05:35 AM 38.4°F3.6°C 31.2°F-0.4°C 75% 2.3 mph SE3.7 kmh SE 9.2 mph14.8 kmh 29.59 in1002.0 mb - 0.00 in0.0 mm 0.00 in0.0 mm
05:40 AM 38.4°F3.6°C 31.2°F-0.4°C 75% 5.8 mph ESE9.3 kmh ESE 9.2 mph14.8 kmh 29.58 in1001.7 mb - 0.00 in0.0 mm 0.00 in0.0 mm
05:45 AM 38.4°F3.6°C 31.2°F-0.4°C 75% 4.6 mph ESE7.4 kmh ESE 8.1 mph13.0 kmh 29.58 in1001.7 mb - 0.00 in0.0 mm 0.00 in0.0 mm
05:50 AM 38.3°F3.5°C 31.1°F-0.5°C 75% 4.6 mph ESE7.4 kmh ESE 6.9 mph11.1 kmh 29.58 in1001.7 mb - 0.00 in0.0 mm 0.00 in0.0 mm
05:55 AM 38.3°F3.5°C 31.1°F-0.5°C 75% 8.1 mph E13.0 kmh E 10.4 mph16.7 kmh 29.57 in1001.4 mb - 0.00 in0.0 mm 0.00 in0.0 mm
06:00 AM 38.4°F3.6°C 31.2°F-0.4°C 75% 6.9 mph ESE11.1 kmh ESE 11.5 mph18.5 kmh 29.57 in1001.4 mb - 0.00 in0.0 mm 0.00 in0.0 mm
06:05 AM 38.6°F3.7°C 31.4°F-0.3°C 75% 6.9 mph SE11.1 kmh SE 9.2 mph14.8 kmh 29.57 in1001.4 mb - 0.00 in0.0 mm 0.00 in0.0 mm
06:10 AM 38.6°F3.7°C 31.4°F-0.3°C 75% 5.8 mph ESE9.3 kmh ESE 9.2 mph14.8 kmh 29.57 in1001.4 mb - 0.00 in0.0 mm 0.00 in0.0 mm
06:15 AM 38.6°F3.7°C 31.4°F-0.3°C 75% 4.6 mph SE7.4 kmh SE 8.1 mph13.0 kmh 29.57 in1001.4 mb - 0.00 in0.0 mm 0.00 in0.0 mm
06:20 AM 38.5°F3.6°C 31.6°F-0.2°C 76% 5.8 mph E9.3 kmh E 11.5 mph18.5 kmh 29.57 in1001.4 mb - 0.00 in0.0 mm 0.00 in0.0 mm
06:25 AM 38.7°F3.7°C 31.8°F-0.1°C 76% 6.9 mph ESE11.1 kmh ESE 8.1 mph13.0 kmh 29.57 in1001.4 mb - 0.00 in0.0 mm 0.00 in0.0 mm
06:30 AM 38.9°F3.8°C 31.6°F-0.2°C 75% 8.1 mph ESE13.0 kmh ESE 10.4 mph16.7 kmh 29.56 in1001.0 mb - 0.00 in0.0 mm 0.00 in0.0 mm
06:35 AM 39.1°F3.9°C 31.9°F-0.1°C 75% 11.5 mph E18.5 kmh E 13.8 mph22.2 kmh 29.56 in1001.0 mb - 0.00 in0.0 mm 0.00 in0.0 mm
06:40 AM 39.6°F4.2°C 32.0°F0.0°C 74% 9.2 mph SE14.8 kmh SE 13.8 mph22.2 kmh 29.57 in1001.4 mb - 0.00 in0.0 mm 0.00 in0.0 mm
06:45 AM 39.6°F4.2°C 32.0°F0.0°C 74% 9.2 mph E14.8 kmh E 16.1 mph25.9 kmh 29.56 in1001.0 mb - 0.00 in0.0 mm 0.00 in0.0 mm
06:50 AM 39.7°F4.3°C 32.1°F0.1°C 74% 8.1 mph ESE13.0 kmh ESE 10.4 mph16.7 kmh 29.55 in1000.7 mb - 0.00 in0.0 mm 0.00 in0.0 mm
06:55 AM 39.6°F4.2°C 32.3°F0.2°C 75% 8.1 mph E13.0 kmh E 11.5 mph18.5 kmh 29.55 in1000.7 mb - 0.00 in0.0 mm 0.00 in0.0 mm
07:00 AM 39.7°F4.3°C 32.4°F0.2°C 75% 9.2 mph ESE14.8 kmh ESE 15.0 mph24.1 kmh 29.54 in1000.3 mb - 0.00 in0.0 mm 0.00 in0.0 mm
07:05 AM 39.7°F4.3°C 32.4°F0.2°C 75% 9.2 mph ESE14.8 kmh ESE 12.7 mph20.4 kmh 29.54 in1000.3 mb - 0.00 in0.0 mm 0.00 in0.0 mm
07:10 AM 39.6°F4.2°C 32.3°F0.2°C 75% 12.7 mph E20.4 kmh E 15.0 mph24.1 kmh 29.54 in1000.3 mb - 0.00 in0.0 mm 0.00 in0.0 mm
07:15 AM 39.8°F4.3°C 32.5°F0.3°C 75% 8.1 mph ESE13.0 kmh ESE 11.5 mph18.5 kmh 29.54 in1000.3 mb - 0.00 in0.0 mm 0.00 in0.0 mm
07:20 AM 39.4°F4.1°C 32.5°F0.3°C 76% 13.8 mph E22.2 kmh E 15.0 mph24.1 kmh 29.54 in1000.3 mb - 0.00 in0.0 mm 0.00 in0.0 mm
07:25 AM 40.1°F4.5°C 32.8°F0.4°C 75% 6.9 mph SE11.1 kmh SE 10.4 mph16.7 kmh 29.55 in1000.7 mb - 0.00 in0.0 mm 0.00 in0.0 mm
07:30 AM 40.1°F4.5°C 32.8°F0.4°C 75% 6.9 mph ESE11.1 kmh ESE 6.9 mph11.1 kmh 29.55 in1000.7 mb - 0.00 in0.0 mm 0.00 in0.0 mm
07:35 AM 40.3°F4.6°C 32.7°F0.4°C 74% 9.2 mph E14.8 kmh E 15.0 mph24.1 kmh 29.54 in1000.3 mb - 0.00 in0.0 mm 0.00 in0.0 mm
07:40 AM 40.5°F4.7°C 32.9°F0.5°C 74% 13.8 mph E22.2 kmh E 17.3 mph27.8 kmh 29.54 in1000.3 mb - 0.01 in0.3 mm 0.01 in0.3 mm
07:45 AM 40.7°F4.8°C 33.1°F0.6°C 74% 9.2 mph ESE14.8 kmh ESE 11.5 mph18.5 kmh 29.54 in1000.3 mb - 0.00 in0.0 mm 0.01 in0.3 mm
07:50 AM 40.7°F4.8°C 33.1°F0.6°C 74% 9.2 mph ESE14.8 kmh ESE 12.7 mph20.4 kmh 29.54 in1000.3 mb - 0.00 in0.0 mm 0.01 in0.3 mm
07:55 AM 40.5°F4.7°C 33.2°F0.7°C 75% 8.1 mph ESE13.0 kmh ESE 15.0 mph24.1 kmh 29.54 in1000.3 mb - 0.00 in0.0 mm 0.01 in0.3 mm
08:00 AM 40.3°F4.6°C 32.7°F0.4°C 74% 10.4 mph E16.7 kmh E 15.0 mph24.1 kmh 29.54 in1000.3 mb - 0.00 in0.0 mm 0.01 in0.3 mm
08:05 AM 40.2°F4.6°C 32.9°F0.5°C 75% 12.7 mph E20.4 kmh E 16.1 mph25.9 kmh 29.53 in1000.0 mb - 0.00 in0.0 mm 0.01 in0.3 mm
08:10 AM 40.2°F4.6°C 32.9°F0.5°C 75% 4.6 mph SE7.4 kmh SE 11.5 mph18.5 kmh 29.54 in1000.3 mb - 0.00 in0.0 mm 0.01 in0.3 mm
08:15 AM 40.1°F4.5°C 33.1°F0.6°C 76% 9.2 mph E14.8 kmh E 13.8 mph22.2 kmh 29.54 in1000.3 mb - 0.00 in0.0 mm 0.01 in0.3 mm
08:20 AM 40.1°F4.5°C 32.8°F0.4°C 75% 10.4 mph E16.7 kmh E 16.1 mph25.9 kmh 29.54 in1000.3 mb - 0.00 in0.0 mm 0.01 in0.3 mm
08:25 AM 40.4°F4.7°C 33.1°F0.6°C 75% 10.4 mph E16.7 kmh E 15.0 mph24.1 kmh 29.54 in1000.3 mb - 0.00 in0.0 mm 0.01 in0.3 mm
08:30 AM 40.7°F4.8°C 33.3°F0.7°C 75% 9.2 mph E14.8 kmh E 15.0 mph24.1 kmh 29.54 in1000.3 mb - 0.00 in0.0 mm 0.01 in0.3 mm
08:35 AM 40.9°F4.9°C 33.2°F0.7°C 74% 8.1 mph ESE13.0 kmh ESE 10.4 mph16.7 kmh 29.54 in1000.3 mb - 0.00 in0.0 mm 0.01 in0.3 mm
08:40 AM 41.0°F5.0°C 33.7°F0.9°C 75% 9.2 mph E14.8 kmh E 12.7 mph20.4 kmh 29.54 in1000.3 mb - 0.00 in0.0 mm 0.01 in0.3 mm
08:45 AM 41.1°F5.1°C 33.4°F0.8°C 74% 11.5 mph E18.5 kmh E 13.8 mph22.2 kmh 29.53 in1000.0 mb - 0.00 in0.0 mm 0.01 in0.3 mm
08:50 AM 41.4°F5.2°C 33.7°F0.9°C 74% 8.1 mph ESE13.0 kmh ESE 11.5 mph18.5 kmh 29.53 in1000.0 mb - 0.00 in0.0 mm 0.01 in0.3 mm
08:55 AM 41.5°F5.3°C 33.8°F1.0°C 74% 9.2 mph ESE14.8 kmh ESE 12.7 mph20.4 kmh 29.53 in1000.0 mb - 0.00 in0.0 mm 0.01 in0.3 mm
09:00 AM 41.8°F5.4°C 34.1°F1.2°C 74% 6.9 mph ESE11.1 kmh ESE 10.4 mph16.7 kmh 29.52 in999.7 mb - 0.00 in0.0 mm 0.01 in0.3 mm
09:05 AM 41.8°F5.4°C 34.1°F1.2°C 74% 8.1 mph E13.0 kmh E 11.5 mph18.5 kmh 29.52 in999.7 mb - 0.00 in0.0 mm 0.01 in0.3 mm
09:10 AM 41.9°F5.5°C 34.2°F1.2°C 74% 9.2 mph E14.8 kmh E 12.7 mph20.4 kmh 29.52 in999.7 mb - 0.00 in0.0 mm 0.01 in0.3 mm
09:15 AM 42.1°F5.6°C 34.1°F1.2°C 73% 9.2 mph ESE14.8 kmh ESE 13.8 mph22.2 kmh 29.51 in999.3 mb - 0.00 in0.0 mm 0.01 in0.3 mm
09:20 AM 42.3°F5.7°C 34.3°F1.3°C 73% 6.9 mph ESE11.1 kmh ESE 11.5 mph18.5 kmh 29.52 in999.7 mb - 0.00 in0.0 mm 0.01 in0.3 mm
09:25 AM 42.3°F5.7°C 34.3°F1.3°C 73% 10.4 mph E16.7 kmh E 12.7 mph20.4 kmh 29.51 in999.3 mb - 0.00 in0.0 mm 0.01 in0.3 mm
09:30 AM 42.3°F5.7°C 34.3°F1.3°C 73% 12.7 mph E20.4 kmh E 15.0 mph24.1 kmh 29.51 in999.3 mb - 0.00 in0.0 mm 0.01 in0.3 mm
09:35 AM 42.5°F5.8°C 34.1°F1.2°C 72% 11.5 mph E18.5 kmh E 15.0 mph24.1 kmh 29.51 in999.3 mb - 0.00 in0.0 mm 0.01 in0.3 mm
09:40 AM 42.7°F5.9°C 34.3°F1.3°C 72% 11.5 mph E18.5 kmh E 13.8 mph22.2 kmh 29.51 in999.3 mb - 0.00 in0.0 mm 0.01 in0.3 mm
09:45 AM 42.7°F5.9°C 34.3°F1.3°C 72% 15.0 mph E24.1 kmh E 19.6 mph31.5 kmh 29.51 in999.3 mb - 0.00 in0.0 mm 0.01 in0.3 mm
09:50 AM 42.8°F6.0°C 34.4°F1.3°C 72% 10.4 mph E16.7 kmh E 15.0 mph24.1 kmh 29.50 in999.0 mb - 0.00 in0.0 mm 0.01 in0.3 mm
09:55 AM 42.9°F6.1°C 34.5°F1.4°C 72% 10.4 mph ESE16.7 kmh ESE 15.0 mph24.1 kmh 29.51 in999.3 mb - 0.00 in0.0 mm 0.01 in0.3 mm
10:00 AM 43.0°F6.1°C 34.6°F1.4°C 72% 9.2 mph E14.8 kmh E 13.8 mph22.2 kmh 29.51 in999.3 mb - 0.00 in0.0 mm 0.01 in0.3 mm
10:05 AM 43.1°F6.2°C 35.0°F1.7°C 73% 12.7 mph E20.4 kmh E 19.6 mph31.5 kmh 29.50 in999.0 mb - 0.00 in0.0 mm 0.01 in0.3 mm
10:10 AM 43.1°F6.2°C 35.0°F1.7°C 73% 11.5 mph E18.5 kmh E 15.0 mph24.1 kmh 29.50 in999.0 mb - 0.00 in0.0 mm 0.01 in0.3 mm
10:15 AM 43.2°F6.2°C 35.1°F1.7°C 73% 10.4 mph E16.7 kmh E 13.8 mph22.2 kmh 29.49 in998.6 mb - 0.00 in0.0 mm 0.01 in0.3 mm
10:20 AM 43.4°F6.3°C 35.3°F1.8°C 73% 11.5 mph ESE18.5 kmh ESE 19.6 mph31.5 kmh 29.50 in999.0 mb - 0.00 in0.0 mm 0.01 in0.3 mm
10:25 AM 43.5°F6.4°C 35.4°F1.9°C 73% 9.2 mph ESE14.8 kmh ESE 13.8 mph22.2 kmh 29.49 in998.6 mb - 0.00 in0.0 mm 0.01 in0.3 mm
10:30 AM 43.5°F6.4°C 35.4°F1.9°C 73% 12.7 mph E20.4 kmh E 15.0 mph24.1 kmh 29.49 in998.6 mb - 0.00 in0.0 mm 0.01 in0.3 mm
10:35 AM 43.6°F6.4°C 35.5°F1.9°C 73% 11.5 mph ESE18.5 kmh ESE 15.0 mph24.1 kmh 29.49 in998.6 mb - 0.00 in0.0 mm 0.01 in0.3 mm
10:40 AM 43.6°F6.4°C 35.5°F1.9°C 73% 8.1 mph E13.0 kmh E 13.8 mph22.2 kmh 29.49 in998.6 mb - 0.00 in0.0 mm 0.01 in0.3 mm
10:45 AM 43.8°F6.6°C 35.7°F2.1°C 73% 9.2 mph E14.8 kmh E 11.5 mph18.5 kmh 29.48 in998.3 mb - 0.00 in0.0 mm 0.01 in0.3 mm
10:50 AM 44.1°F6.7°C 36.0°F2.2°C 73% 9.2 mph E14.8 kmh E 13.8 mph22.2 kmh 29.48 in998.3 mb - 0.00 in0.0 mm 0.01 in0.3 mm
10:55 AM 44.6°F7.0°C 36.5°F2.5°C 73% 10.4 mph E16.7 kmh E 13.8 mph22.2 kmh 29.47 in998.0 mb - 0.00 in0.0 mm 0.01 in0.3 mm
11:00 AM 44.9°F7.2°C 36.5°F2.5°C 72% 10.4 mph E16.7 kmh E 13.8 mph22.2 kmh 29.47 in998.0 mb - 0.00 in0.0 mm 0.01 in0.3 mm
11:05 AM 45.1°F7.3°C 36.3°F2.4°C 71% 10.4 mph ESE16.7 kmh ESE 16.1 mph25.9 kmh 29.47 in998.0 mb - 0.00 in0.0 mm 0.01 in0.3 mm
11:10 AM 45.1°F7.3°C 36.3°F2.4°C 71% 11.5 mph E18.5 kmh E 13.8 mph22.2 kmh 29.47 in998.0 mb - 0.00 in0.0 mm 0.01 in0.3 mm
11:15 AM 45.0°F7.2°C 36.5°F2.5°C 72% 11.5 mph E18.5 kmh E 13.8 mph22.2 kmh 29.47 in998.0 mb - 0.00 in0.0 mm 0.01 in0.3 mm
11:20 AM 45.1°F7.3°C 36.6°F2.6°C 72% 15.0 mph E24.1 kmh E 19.6 mph31.5 kmh 29.46 in997.6 mb - 0.00 in0.0 mm 0.01 in0.3 mm
11:25 AM 45.2°F7.3°C 36.7°F2.6°C 72% 12.7 mph E20.4 kmh E 13.8 mph22.2 kmh 29.46 in997.6 mb - 0.00 in0.0 mm 0.01 in0.3 mm
11:30 AM 45.3°F7.4°C 36.5°F2.5°C 71% 15.0 mph E24.1 kmh E 20.7 mph33.3 kmh 29.46 in997.6 mb - 0.00 in0.0 mm 0.01 in0.3 mm
11:35 AM 45.4°F7.4°C 36.5°F2.5°C 71% 11.5 mph E18.5 kmh E 19.6 mph31.5 kmh 29.45 in997.3 mb - 0.00 in0.0 mm 0.01 in0.3 mm
11:40 AM 45.4°F7.4°C 36.9°F2.7°C 72% 10.4 mph E16.7 kmh E 15.0 mph24.1 kmh 29.45 in997.3 mb - 0.00 in0.0 mm 0.01 in0.3 mm
11:45 AM 45.4°F7.4°C 36.9°F2.7°C 72% 12.7 mph E20.4 kmh E 19.6 mph31.5 kmh 29.45 in997.3 mb - 0.00 in0.0 mm 0.01 in0.3 mm
11:50 AM 45.4°F7.4°C 36.9°F2.7°C 72% 17.3 mph E27.8 kmh E 23.0 mph37.0 kmh 29.45 in997.3 mb - 0.00 in0.0 mm 0.01 in0.3 mm
11:55 AM 45.4°F7.4°C 36.6°F2.6°C 71% 13.8 mph E22.2 kmh E 18.4 mph29.6 kmh 29.45 in997.3 mb - 0.00 in0.0 mm 0.01 in0.3 mm
12:00 PM 45.6°F7.6°C 37.1°F2.8°C 72% 11.5 mph E18.5 kmh E 11.5 mph18.5 kmh 29.45 in997.3 mb - 0.00 in0.0 mm 0.01 in0.3 mm
12:05 PM 45.8°F7.7°C 37.2°F2.9°C 72% 12.7 mph E20.4 kmh E 19.6 mph31.5 kmh 29.44 in997.0 mb - 0.00 in0.0 mm 0.01 in0.3 mm
12:10 PM 45.8°F7.7°C 37.3°F2.9°C 72% 12.7 mph E20.4 kmh E 19.6 mph31.5 kmh 29.44 in997.0 mb - 0.00 in0.0 mm 0.01 in0.3 mm
12:15 PM 46.1°F7.8°C 37.2°F2.9°C 71% 12.7 mph E20.4 kmh E 19.6 mph31.5 kmh 29.43 in996.6 mb - 0.00 in0.0 mm 0.01 in0.3 mm
12:20 PM 46.3°F7.9°C 37.4°F3.0°C 71% 13.8 mph ESE22.2 kmh ESE 19.6 mph31.5 kmh 29.44 in997.0 mb - 0.00 in0.0 mm 0.01 in0.3 mm
12:25 PM 46.4°F8.0°C 37.5°F3.1°C 71% 16.1 mph E25.9 kmh E 23.0 mph37.0 kmh 29.43 in996.6 mb - 0.00 in0.0 mm 0.01 in0.3 mm
12:30 PM 46.4°F8.0°C 37.5°F3.1°C 71% 12.7 mph E20.4 kmh E 17.3 mph27.8 kmh 29.43 in996.6 mb - 0.00 in0.0 mm 0.01 in0.3 mm
12:35 PM 46.6°F8.1°C 37.7°F3.2°C 71% 13.8 mph E22.2 kmh E 20.7 mph33.3 kmh 29.43 in996.6 mb - 0.00 in0.0 mm 0.01 in0.3 mm
12:40 PM 46.7°F8.2°C 37.8°F3.2°C 71% 13.8 mph E22.2 kmh E 20.7 mph33.3 kmh 29.43 in996.6 mb - 0.00 in0.0 mm 0.01 in0.3 mm
12:45 PM 46.8°F8.2°C 37.5°F3.1°C 70% 11.5 mph E18.5 kmh E 11.5 mph18.5 kmh 29.42 in996.3 mb - 0.00 in0.0 mm 0.01 in0.3 mm
12:50 PM 46.9°F8.3°C 38.0°F3.3°C 71% 11.5 mph E18.5 kmh E 16.1 mph25.9 kmh 29.42 in996.3 mb - 0.00 in0.0 mm 0.01 in0.3 mm
12:55 PM 47.1°F8.4°C 38.1°F3.4°C 71% 10.4 mph E16.7 kmh E 17.3 mph27.8 kmh 29.42 in996.3 mb - 0.00 in0.0 mm 0.01 in0.3 mm
01:00 PM 47.0°F8.3°C 38.1°F3.4°C 71% 11.5 mph E18.5 kmh E 17.3 mph27.8 kmh 29.42 in996.3 mb - 0.00 in0.0 mm 0.01 in0.3 mm
01:05 PM 47.1°F8.4°C 38.2°F3.4°C 71% 9.2 mph ESE14.8 kmh ESE 18.4 mph29.6 kmh 29.42 in996.3 mb - 0.00 in0.0 mm 0.01 in0.3 mm
01:10 PM 47.2°F8.4°C 38.3°F3.5°C 71% 10.4 mph E16.7 kmh E 16.1 mph25.9 kmh 29.42 in996.3 mb - 0.00 in0.0 mm 0.01 in0.3 mm
01:15 PM 47.3°F8.5°C 38.3°F3.5°C 71% 11.5 mph E18.5 kmh E 17.3 mph27.8 kmh 29.41 in995.9 mb - 0.00 in0.0 mm 0.01 in0.3 mm
01:20 PM 47.3°F8.5°C 38.4°F3.6°C 71% 13.8 mph E22.2 kmh E 15.0 mph24.1 kmh 29.41 in995.9 mb - 0.00 in0.0 mm 0.01 in0.3 mm
01:25 PM 47.3°F8.5°C 38.4°F3.6°C 71% 12.7 mph E20.4 kmh E 18.4 mph29.6 kmh 29.41 in995.9 mb - 0.00 in0.0 mm 0.01 in0.3 mm
01:30 PM 47.4°F8.6°C 38.5°F3.6°C 71% 12.7 mph E20.4 kmh E 17.3 mph27.8 kmh 29.41 in995.9 mb - 0.00 in0.0 mm 0.01 in0.3 mm
01:35 PM 47.5°F8.6°C 38.6°F3.7°C 71% 12.7 mph E20.4 kmh E 16.1 mph25.9 kmh 29.41 in995.9 mb - 0.00 in0.0 mm 0.01 in0.3 mm
01:40 PM 47.6°F8.7°C 38.6°F3.7°C 71% 11.5 mph E18.5 kmh E 13.8 mph22.2 kmh 29.40 in995.6 mb - 0.00 in0.0 mm 0.01 in0.3 mm
01:45 PM 47.6°F8.7°C 38.6°F3.7°C 71% 10.4 mph E16.7 kmh E 13.8 mph22.2 kmh 29.40 in995.6 mb - 0.00 in0.0 mm 0.01 in0.3 mm
01:50 PM 47.6°F8.7°C 38.7°F3.7°C 71% 10.4 mph E16.7 kmh E 13.8 mph22.2 kmh 29.40 in995.6 mb - 0.00 in0.0 mm 0.01 in0.3 mm
01:55 PM 47.6°F8.7°C 38.7°F3.7°C 71% 11.5 mph E18.5 kmh E 17.3 mph27.8 kmh 29.39 in995.3 mb - 0.00 in0.0 mm 0.01 in0.3 mm
02:00 PM 47.7°F8.7°C 38.7°F3.7°C 71% 15.0 mph E24.1 kmh E 20.7 mph33.3 kmh 29.39 in995.3 mb - 0.00 in0.0 mm 0.01 in0.3 mm
02:05 PM 47.8°F8.8°C 38.8°F3.8°C 71% 11.5 mph E18.5 kmh E 25.3 mph40.7 kmh 29.39 in995.3 mb - 0.00 in0.0 mm 0.01 in0.3 mm
02:10 PM 47.9°F8.8°C 38.9°F3.8°C 71% 13.8 mph E22.2 kmh E 17.3 mph27.8 kmh 29.38 in994.9 mb - 0.00 in0.0 mm 0.01 in0.3 mm
02:15 PM 48.2°F9.0°C 39.2°F4.0°C 71% 12.7 mph E20.4 kmh E 19.6 mph31.5 kmh 29.38 in994.9 mb - 0.00 in0.0 mm 0.01 in0.3 mm
02:20 PM 48.5°F9.2°C 39.1°F3.9°C 70% 10.4 mph E16.7 kmh E 18.4 mph29.6 kmh 29.38 in994.9 mb - 0.00 in0.0 mm 0.01 in0.3 mm
02:25 PM 48.7°F9.3°C 39.4°F4.1°C 70% 11.5 mph E18.5 kmh E 17.3 mph27.8 kmh 29.38 in994.9 mb - 0.00 in0.0 mm 0.01 in0.3 mm
02:30 PM 49.0°F9.4°C 39.6°F4.2°C 70% 13.8 mph ESE22.2 kmh ESE 19.6 mph31.5 kmh 29.38 in994.9 mb - 0.00 in0.0 mm 0.01 in0.3 mm
02:35 PM 49.2°F9.6°C 39.5°F4.2°C 69% 9.2 mph ESE14.8 kmh ESE 17.3 mph27.8 kmh 29.38 in994.9 mb - 0.00 in0.0 mm 0.01 in0.3 mm
02:40 PM 49.2°F9.6°C 39.9°F4.4°C 70% 10.4 mph E16.7 kmh E 17.3 mph27.8 kmh 29.38 in994.9 mb - 0.00 in0.0 mm 0.01 in0.3 mm
02:45 PM 49.2°F9.6°C 39.5°F4.2°C 69% 12.7 mph E20.4 kmh E 18.4 mph29.6 kmh 29.37 in994.6 mb - 0.00 in0.0 mm 0.01 in0.3 mm
02:50 PM 49.3°F9.6°C 39.9°F4.4°C 70% 13.8 mph E22.2 kmh E 19.6 mph31.5 kmh 29.37 in994.6 mb - 0.00 in0.0 mm 0.01 in0.3 mm
02:55 PM 49.2°F9.6°C 39.8°F4.3°C 70% 11.5 mph ESE18.5 kmh ESE 16.1 mph25.9 kmh 29.37 in994.6 mb - 0.00 in0.0 mm 0.01 in0.3 mm
03:00 PM 49.4°F9.7°C 40.0°F4.4°C 70% 12.7 mph E20.4 kmh E 20.7 mph33.3 kmh 29.37 in994.6 mb - 0.00 in0.0 mm 0.01 in0.3 mm
03:05 PM 49.2°F9.6°C 39.8°F4.3°C 70% 11.5 mph E18.5 kmh E 12.7 mph20.4 kmh 29.37 in994.6 mb - 0.00 in0.0 mm 0.01 in0.3 mm
03:10 PM 49.2°F9.6°C 40.2°F4.6°C 71% 13.8 mph E22.2 kmh E 17.3 mph27.8 kmh 29.36 in994.2 mb - 0.00 in0.0 mm 0.01 in0.3 mm
03:15 PM 49.2°F9.6°C 40.2°F4.6°C 71% 12.7 mph E20.4 kmh E 19.6 mph31.5 kmh 29.37 in994.6 mb - 0.00 in0.0 mm 0.01 in0.3 mm
03:20 PM 49.1°F9.5°C 40.1°F4.5°C 71% 12.7 mph ESE20.4 kmh ESE 18.4 mph29.6 kmh 29.36 in994.2 mb - 0.00 in0.0 mm 0.01 in0.3 mm
03:25 PM 49.0°F9.4°C 40.0°F4.4°C 71% 11.5 mph ESE18.5 kmh ESE 13.8 mph22.2 kmh 29.36 in994.2 mb - 0.00 in0.0 mm 0.01 in0.3 mm
03:30 PM 49.0°F9.4°C 40.0°F4.4°C 71% 11.5 mph ESE18.5 kmh ESE 15.0 mph24.1 kmh 29.36 in994.2 mb - 0.00 in0.0 mm 0.01 in0.3 mm
03:35 PM 48.9°F9.4°C 39.9°F4.4°C 71% 11.5 mph E18.5 kmh E 12.7 mph20.4 kmh 29.36 in994.2 mb - 0.00 in0.0 mm 0.01 in0.3 mm
03:40 PM 48.9°F9.4°C 39.9°F4.4°C 71% 12.7 mph ESE20.4 kmh ESE 18.4 mph29.6 kmh 29.36 in994.2 mb - 0.00 in0.0 mm 0.01 in0.3 mm
03:45 PM 48.8°F9.3°C 40.2°F4.6°C 72% 11.5 mph E18.5 kmh E 13.8 mph22.2 kmh 29.36 in994.2 mb - 0.00 in0.0 mm 0.01 in0.3 mm
03:50 PM 48.8°F9.3°C 39.8°F4.3°C 71% 10.4 mph E16.7 kmh E 13.8 mph22.2 kmh 29.35 in993.9 mb - 0.00 in0.0 mm 0.01 in0.3 mm
03:55 PM 48.9°F9.4°C 40.3°F4.6°C 72% 11.5 mph E18.5 kmh E 17.3 mph27.8 kmh 29.36 in994.2 mb - 0.00 in0.0 mm 0.01 in0.3 mm
04:00 PM 48.8°F9.3°C 40.2°F4.6°C 72% 13.8 mph E22.2 kmh E 17.3 mph27.8 kmh 29.35 in993.9 mb - 0.00 in0.0 mm 0.01 in0.3 mm
04:05 PM 48.8°F9.3°C 40.2°F4.6°C 72% 12.7 mph E20.4 kmh E 18.4 mph29.6 kmh 29.35 in993.9 mb - 0.00 in0.0 mm 0.01 in0.3 mm
04:10 PM 48.8°F9.3°C 40.2°F4.6°C 72% 13.8 mph E22.2 kmh E 18.4 mph29.6 kmh 29.35 in993.9 mb - 0.00 in0.0 mm 0.01 in0.3 mm
04:15 PM 48.8°F9.3°C 40.2°F4.6°C 72% 12.7 mph ESE20.4 kmh ESE 13.8 mph22.2 kmh 29.35 in993.9 mb - 0.00 in0.0 mm 0.01 in0.3 mm
04:20 PM 48.9°F9.4°C 40.3°F4.6°C 72% 11.5 mph E18.5 kmh E 16.1 mph25.9 kmh 29.34 in993.6 mb - 0.00 in0.0 mm 0.01 in0.3 mm
04:25 PM 48.9°F9.4°C 40.2°F4.6°C 72% 15.0 mph E24.1 kmh E 19.6 mph31.5 kmh 29.34 in993.6 mb - 0.00 in0.0 mm 0.01 in0.3 mm
04:30 PM 48.8°F9.3°C 40.2°F4.6°C 72% 8.1 mph E13.0 kmh E 15.0 mph24.1 kmh 29.34 in993.6 mb - 0.00 in0.0 mm 0.01 in0.3 mm
04:35 PM 48.8°F9.3°C 40.5°F4.7°C 73% 11.5 mph ESE18.5 kmh ESE 17.3 mph27.8 kmh 29.34 in993.6 mb - 0.00 in0.0 mm 0.01 in0.3 mm
04:40 PM 48.8°F9.3°C 40.5°F4.7°C 73% 9.2 mph ESE14.8 kmh ESE 12.7 mph20.4 kmh 29.34 in993.6 mb - 0.00 in0.0 mm 0.01 in0.3 mm
04:45 PM 48.8°F9.3°C 40.5°F4.7°C 73% 11.5 mph ESE18.5 kmh ESE 17.3 mph27.8 kmh 29.34 in993.6 mb - 0.00 in0.0 mm 0.01 in0.3 mm
04:50 PM 48.7°F9.3°C 40.4°F4.7°C 73% 10.4 mph E16.7 kmh E 15.0 mph24.1 kmh 29.34 in993.6 mb - 0.00 in0.0 mm 0.01 in0.3 mm
04:55 PM 48.6°F9.2°C 40.3°F4.6°C 73% 9.2 mph E14.8 kmh E 16.1 mph25.9 kmh 29.34 in993.6 mb - 0.00 in0.0 mm 0.01 in0.3 mm
05:00 PM 48.5°F9.2°C 40.6°F4.8°C 74% 9.2 mph ESE14.8 kmh ESE 17.3 mph27.8 kmh 29.34 in993.6 mb - 0.00 in0.0 mm 0.01 in0.3 mm
05:05 PM 48.3°F9.1°C 40.4°F4.7°C 74% 12.7 mph E20.4 kmh E 19.6 mph31.5 kmh 29.34 in993.6 mb - 0.00 in0.0 mm 0.01 in0.3 mm
05:10 PM 48.3°F9.1°C 40.4°F4.7°C 74% 12.7 mph E20.4 kmh E 16.1 mph25.9 kmh 29.34 in993.6 mb - 0.00 in0.0 mm 0.01 in0.3 mm
05:15 PM 48.2°F9.0°C 40.3°F4.6°C 74% 12.7 mph E20.4 kmh E 13.8 mph22.2 kmh 29.34 in993.6 mb - 0.00 in0.0 mm 0.01 in0.3 mm
05:20 PM 48.1°F8.9°C 40.2°F4.6°C 74% 9.2 mph ESE14.8 kmh ESE 11.5 mph18.5 kmh 29.34 in993.6 mb - 0.00 in0.0 mm 0.01 in0.3 mm
05:25 PM 47.8°F8.8°C 39.9°F4.4°C 74% 8.1 mph E13.0 kmh E 11.5 mph18.5 kmh 29.34 in993.6 mb - 0.00 in0.0 mm 0.01 in0.3 mm
05:30 PM 47.8°F8.8°C 39.9°F4.4°C 74% 10.4 mph ESE16.7 kmh ESE 12.7 mph20.4 kmh 29.34 in993.6 mb - 0.00 in0.0 mm 0.01 in0.3 mm
05:35 PM 47.6°F8.7°C 39.7°F4.3°C 74% 10.4 mph ESE16.7 kmh ESE 12.7 mph20.4 kmh 29.34 in993.6 mb - 0.00 in0.0 mm 0.01 in0.3 mm
05:40 PM 47.6°F8.7°C 39.7°F4.3°C 74% 10.4 mph ESE16.7 kmh ESE 17.3 mph27.8 kmh 29.34 in993.6 mb - 0.00 in0.0 mm 0.01 in0.3 mm
05:45 PM 47.5°F8.6°C 40.0°F4.4°C 75% 9.2 mph E14.8 kmh E 17.3 mph27.8 kmh 29.34 in993.6 mb - 0.00 in0.0 mm 0.01 in0.3 mm
05:50 PM 47.4°F8.6°C 39.9°F4.4°C 75% 9.2 mph E14.8 kmh E 18.4 mph29.6 kmh 29.34 in993.6 mb - 0.00 in0.0 mm 0.01 in0.3 mm
05:55 PM 47.3°F8.5°C 39.8°F4.3°C 75% 10.4 mph ESE16.7 kmh ESE 18.4 mph29.6 kmh 29.34 in993.6 mb - 0.00 in0.0 mm 0.01 in0.3 mm
06:00 PM 47.4°F8.6°C 39.8°F4.3°C 75% 10.4 mph ESE16.7 kmh ESE 15.0 mph24.1 kmh 29.34 in993.6 mb - 0.00 in0.0 mm 0.01 in0.3 mm
06:05 PM 47.4°F8.6°C 39.8°F4.3°C 75% 11.5 mph E18.5 kmh E 18.4 mph29.6 kmh 29.34 in993.6 mb - 0.00 in0.0 mm 0.01 in0.3 mm
06:10 PM 47.4°F8.6°C 39.9°F4.4°C 75% 10.4 mph ESE16.7 kmh ESE 13.8 mph22.2 kmh 29.34 in993.6 mb - 0.00 in0.0 mm 0.01 in0.3 mm
06:15 PM 47.3°F8.5°C 39.8°F4.3°C 75% 10.4 mph ESE16.7 kmh ESE 13.8 mph22.2 kmh 29.34 in993.6 mb - 0.00 in0.0 mm 0.01 in0.3 mm
06:20 PM 47.2°F8.4°C 39.7°F4.3°C 75% 9.2 mph ESE14.8 kmh ESE 13.8 mph22.2 kmh 29.34 in993.6 mb - 0.00 in0.0 mm 0.01 in0.3 mm
06:25 PM 47.0°F8.3°C 39.5°F4.2°C 75% 10.4 mph E16.7 kmh E 12.7 mph20.4 kmh 29.34 in993.6 mb - 0.00 in0.0 mm 0.01 in0.3 mm
06:30 PM 46.8°F8.2°C 39.3°F4.1°C 75% 10.4 mph E16.7 kmh E 12.7 mph20.4 kmh 29.33 in993.2 mb - 0.00 in0.0 mm 0.01 in0.3 mm
06:35 PM 46.7°F8.2°C 39.2°F4.0°C 75% 11.5 mph E18.5 kmh E 12.7 mph20.4 kmh 29.33 in993.2 mb - 0.00 in0.0 mm 0.01 in0.3 mm
06:40 PM 46.7°F8.2°C 39.2°F4.0°C 75% 10.4 mph E16.7 kmh E 13.8 mph22.2 kmh 29.33 in993.2 mb - 0.00 in0.0 mm 0.01 in0.3 mm
06:45 PM 46.7°F8.2°C 39.2°F4.0°C 75% 11.5 mph E18.5 kmh E 18.4 mph29.6 kmh 29.33 in993.2 mb - 0.00 in0.0 mm 0.01 in0.3 mm
06:50 PM 46.6°F8.1°C 39.1°F3.9°C 75% 10.4 mph ESE16.7 kmh ESE 13.8 mph22.2 kmh 29.33 in993.2 mb - 0.00 in0.0 mm 0.01 in0.3 mm
06:55 PM 46.6°F8.1°C 39.1°F3.9°C 75% 10.4 mph ESE16.7 kmh ESE 11.5 mph18.5 kmh 29.33 in993.2 mb - 0.00 in0.0 mm 0.01 in0.3 mm
07:00 PM 46.5°F8.1°C 39.0°F3.9°C 75% 10.4 mph E16.7 kmh E 13.8 mph22.2 kmh 29.33 in993.2 mb - 0.00 in0.0 mm 0.01 in0.3 mm
07:05 PM 46.5°F8.1°C 39.0°F3.9°C 75% 10.4 mph E16.7 kmh E 16.1 mph25.9 kmh 29.33 in993.2 mb - 0.00 in0.0 mm 0.01 in0.3 mm
07:10 PM 46.5°F8.1°C 39.0°F3.9°C 75% 10.4 mph E16.7 kmh E 24.2 mph38.9 kmh 29.33 in993.2 mb - 0.00 in0.0 mm 0.01 in0.3 mm
07:15 PM 46.7°F8.2°C 39.2°F4.0°C 75% 12.7 mph E20.4 kmh E 15.0 mph24.1 kmh 29.33 in993.2 mb - 0.00 in0.0 mm 0.01 in0.3 mm
07:20 PM 46.8°F8.2°C 39.3°F4.1°C 75% 10.4 mph E16.7 kmh E 16.1 mph25.9 kmh 29.33 in993.2 mb - 0.00 in0.0 mm 0.01 in0.3 mm
07:25 PM 46.9°F8.3°C 39.4°F4.1°C 75% 13.8 mph E22.2 kmh E 20.7 mph33.3 kmh 29.33 in993.2 mb - 0.00 in0.0 mm 0.01 in0.3 mm
07:30 PM 46.8°F8.2°C 39.3°F4.1°C 75% 16.1 mph E25.9 kmh E 24.2 mph38.9 kmh 29.33 in993.2 mb - 0.00 in0.0 mm 0.01 in0.3 mm
07:35 PM 46.5°F8.1°C 39.0°F3.9°C 75% 16.1 mph E25.9 kmh E 20.7 mph33.3 kmh 29.33 in993.2 mb - 0.00 in0.0 mm 0.01 in0.3 mm
07:40 PM 46.3°F7.9°C 38.8°F3.8°C 75% 13.8 mph E22.2 kmh E 21.9 mph35.2 kmh 29.33 in993.2 mb - 0.00 in0.0 mm 0.01 in0.3 mm
07:45 PM 46.1°F7.8°C 38.6°F3.7°C 75% 11.5 mph E18.5 kmh E 19.6 mph31.5 kmh 29.33 in993.2 mb - 0.00 in0.0 mm 0.01 in0.3 mm
07:50 PM 46.2°F7.9°C 38.7°F3.7°C 75% 10.4 mph E16.7 kmh E 19.6 mph31.5 kmh 29.33 in993.2 mb - 0.00 in0.0 mm 0.01 in0.3 mm
07:55 PM 46.3°F7.9°C 38.8°F3.8°C 75% 12.7 mph E20.4 kmh E 18.4 mph29.6 kmh 29.33 in993.2 mb - 0.00 in0.0 mm 0.01 in0.3 mm
08:00 PM 46.5°F8.1°C 39.0°F3.9°C 75% 13.8 mph E22.2 kmh E 17.3 mph27.8 kmh 29.33 in993.2 mb - 0.00 in0.0 mm 0.01 in0.3 mm
08:05 PM 46.7°F8.2°C 39.2°F4.0°C 75% 11.5 mph E18.5 kmh E 19.6 mph31.5 kmh 29.33 in993.2 mb - 0.00 in0.0 mm 0.01 in0.3 mm
08:10 PM 46.9°F8.3°C 39.4°F4.1°C 75% 12.7 mph E20.4 kmh E 16.1 mph25.9 kmh 29.33 in993.2 mb - 0.00 in0.0 mm 0.01 in0.3 mm
08:15 PM 47.3°F8.5°C 39.8°F4.3°C 75% 15.0 mph E24.1 kmh E 23.0 mph37.0 kmh 29.32 in992.9 mb - 0.00 in0.0 mm 0.01 in0.3 mm
08:20 PM 47.4°F8.6°C 39.5°F4.2°C 74% 13.8 mph E22.2 kmh E 20.7 mph33.3 kmh 29.32 in992.9 mb - 0.00 in0.0 mm 0.01 in0.3 mm
08:25 PM 47.2°F8.4°C 39.7°F4.3°C 75% 8.1 mph ESE13.0 kmh ESE 13.8 mph22.2 kmh 29.32 in992.9 mb - 0.00 in0.0 mm 0.01 in0.3 mm
08:30 PM 47.0°F8.3°C 39.5°F4.2°C 75% 12.7 mph E20.4 kmh E 18.4 mph29.6 kmh 29.32 in992.9 mb - 0.00 in0.0 mm 0.01 in0.3 mm
08:35 PM 46.9°F8.3°C 39.3°F4.1°C 75% 11.5 mph E18.5 kmh E 17.3 mph27.8 kmh 29.32 in992.9 mb - 0.00 in0.0 mm 0.01 in0.3 mm
08:40 PM 46.7°F8.2°C 39.2°F4.0°C 75% 16.1 mph E25.9 kmh E 26.5 mph42.6 kmh 29.32 in992.9 mb - 0.00 in0.0 mm 0.01 in0.3 mm
08:45 PM 46.7°F8.2°C 39.2°F4.0°C 75% 13.8 mph E22.2 kmh E 20.7 mph33.3 kmh 29.32 in992.9 mb - 0.00 in0.0 mm 0.01 in0.3 mm
08:50 PM 46.6°F8.1°C 39.1°F3.9°C 75% 12.7 mph ESE20.4 kmh ESE 20.7 mph33.3 kmh 29.32 in992.9 mb - 0.00 in0.0 mm 0.01 in0.3 mm
08:55 PM 46.5°F8.1°C 39.0°F3.9°C 75% 12.7 mph E20.4 kmh E 21.9 mph35.2 kmh 29.31 in992.6 mb - 0.00 in0.0 mm 0.01 in0.3 mm
09:00 PM 46.5°F8.1°C 39.0°F3.9°C 75% 8.1 mph E13.0 kmh E 16.1 mph25.9 kmh 29.32 in992.9 mb - 0.00 in0.0 mm 0.01 in0.3 mm
09:05 PM 46.5°F8.1°C 39.0°F3.9°C 75% 13.8 mph E22.2 kmh E 21.9 mph35.2 kmh 29.31 in992.6 mb - 0.00 in0.0 mm 0.01 in0.3 mm
09:10 PM 46.5°F8.1°C 39.0°F3.9°C 75% 15.0 mph E24.1 kmh E 20.7 mph33.3 kmh 29.31 in992.6 mb - 0.00 in0.0 mm 0.01 in0.3 mm
09:15 PM 46.1°F7.8°C 38.6°F3.7°C 75% 13.8 mph ESE22.2 kmh ESE 18.4 mph29.6 kmh 29.31 in992.6 mb - 0.00 in0.0 mm 0.01 in0.3 mm
09:20 PM 45.8°F7.7°C 38.7°F3.7°C 76% 11.5 mph E18.5 kmh E 15.0 mph24.1 kmh 29.31 in992.6 mb - 0.00 in0.0 mm 0.01 in0.3 mm
09:25 PM 46.0°F7.8°C 38.5°F3.6°C 75% 12.7 mph E20.4 kmh E 16.1 mph25.9 kmh 29.31 in992.6 mb - 0.00 in0.0 mm 0.01 in0.3 mm
09:30 PM 46.3°F7.9°C 38.8°F3.8°C 75% 10.4 mph E16.7 kmh E 16.1 mph25.9 kmh 29.31 in992.6 mb - 0.00 in0.0 mm 0.01 in0.3 mm
09:35 PM 46.4°F8.0°C 38.9°F3.8°C 75% 10.4 mph E16.7 kmh E 13.8 mph22.2 kmh 29.32 in992.9 mb - 0.00 in0.0 mm 0.01 in0.3 mm
09:40 PM 46.4°F8.0°C 38.9°F3.8°C 75% 10.4 mph ESE16.7 kmh ESE 11.5 mph18.5 kmh 29.32 in992.9 mb - 0.00 in0.0 mm 0.01 in0.3 mm
09:45 PM 46.4°F8.0°C 38.9°F3.8°C 75% 12.7 mph E20.4 kmh E 24.2 mph38.9 kmh 29.32 in992.9 mb - 0.00 in0.0 mm 0.01 in0.3 mm
09:50 PM 46.4°F8.0°C 38.9°F3.8°C 75% 13.8 mph ESE22.2 kmh ESE 17.3 mph27.8 kmh 29.32 in992.9 mb - 0.00 in0.0 mm 0.01 in0.3 mm
09:55 PM 46.3°F7.9°C 38.8°F3.8°C 75% 15.0 mph E24.1 kmh E 19.6 mph31.5 kmh 29.31 in992.6 mb - 0.00 in0.0 mm 0.01 in0.3 mm
10:00 PM 46.3°F7.9°C 38.8°F3.8°C 75% 12.7 mph E20.4 kmh E 19.6 mph31.5 kmh 29.31 in992.6 mb - 0.00 in0.0 mm 0.01 in0.3 mm
10:05 PM 46.2°F7.9°C 38.7°F3.7°C 75% 10.4 mph E16.7 kmh E 15.0 mph24.1 kmh 29.31 in992.6 mb - 0.00 in0.0 mm 0.01 in0.3 mm
10:10 PM 46.3°F7.9°C 38.8°F3.8°C 75% 15.0 mph E24.1 kmh E 19.6 mph31.5 kmh 29.30 in992.2 mb - 0.00 in0.0 mm 0.01 in0.3 mm
10:15 PM 46.4°F8.0°C 38.9°F3.8°C 75% 13.8 mph E22.2 kmh E 19.6 mph31.5 kmh 29.30 in992.2 mb - 0.00 in0.0 mm 0.01 in0.3 mm
10:20 PM 46.4°F8.0°C 38.9°F3.8°C 75% 13.8 mph E22.2 kmh E 17.3 mph27.8 kmh 29.30 in992.2 mb - 0.00 in0.0 mm 0.01 in0.3 mm
10:25 PM 46.4°F8.0°C 38.6°F3.7°C 74% 17.3 mph E27.8 kmh E 20.7 mph33.3 kmh 29.30 in992.2 mb - 0.00 in0.0 mm 0.01 in0.3 mm
10:30 PM 46.4°F8.0°C 38.5°F3.6°C 74% 12.7 mph E20.4 kmh E 20.7 mph33.3 kmh 29.30 in992.2 mb - 0.00 in0.0 mm 0.01 in0.3 mm
10:35 PM 46.3°F7.9°C 38.5°F3.6°C 74% 17.3 mph E27.8 kmh E 23.0 mph37.0 kmh 29.30 in992.2 mb - 0.00 in0.0 mm 0.01 in0.3 mm
10:40 PM 46.3°F7.9°C 38.4°F3.6°C 74% 15.0 mph E24.1 kmh E 21.9 mph35.2 kmh 29.30 in992.2 mb - 0.00 in0.0 mm 0.01 in0.3 mm
10:45 PM 46.1°F7.8°C 38.3°F3.5°C 74% 15.0 mph E24.1 kmh E 18.4 mph29.6 kmh 29.30 in992.2 mb - 0.00 in0.0 mm 0.01 in0.3 mm
10:50 PM 46.1°F7.8°C 38.3°F3.5°C 74% 12.7 mph E20.4 kmh E 18.4 mph29.6 kmh 29.30 in992.2 mb - 0.00 in0.0 mm 0.01 in0.3 mm
10:55 PM 46.0°F7.8°C 38.2°F3.4°C 74% 15.0 mph E24.1 kmh E 19.6 mph31.5 kmh 29.30 in992.2 mb - 0.00 in0.0 mm 0.01 in0.3 mm
11:00 PM 45.9°F7.7°C 38.4°F3.6°C 75% 15.0 mph E24.1 kmh E 17.3 mph27.8 kmh 29.30 in992.2 mb - 0.00 in0.0 mm 0.01 in0.3 mm
11:05 PM 45.9°F7.7°C 38.4°F3.6°C 75% 11.5 mph E18.5 kmh E 19.6 mph31.5 kmh 29.30 in992.2 mb - 0.00 in0.0 mm 0.01 in0.3 mm
11:10 PM 45.8°F7.7°C 38.4°F3.6°C 75% 13.8 mph E22.2 kmh E 19.6 mph31.5 kmh 29.30 in992.2 mb - 0.00 in0.0 mm 0.01 in0.3 mm
11:15 PM 45.9°F7.7°C 38.4°F3.6°C 75% 15.0 mph E24.1 kmh E 23.0 mph37.0 kmh 29.30 in992.2 mb - 0.00 in0.0 mm 0.01 in0.3 mm
11:20 PM 45.9°F7.7°C 38.4°F3.6°C 75% 17.3 mph E27.8 kmh E 20.7 mph33.3 kmh 29.30 in992.2 mb - 0.00 in0.0 mm 0.01 in0.3 mm
11:25 PM 46.0°F7.8°C 38.5°F3.6°C 75% 15.0 mph E24.1 kmh E 25.3 mph40.7 kmh 29.30 in992.2 mb - 0.00 in0.0 mm 0.01 in0.3 mm
11:30 PM 46.0°F7.8°C 38.5°F3.6°C 75% 16.1 mph E25.9 kmh E 19.6 mph31.5 kmh 29.30 in992.2 mb - 0.00 in0.0 mm 0.01 in0.3 mm
11:35 PM 46.0°F7.8°C 38.5°F3.6°C 75% 17.3 mph E27.8 kmh E 24.2 mph38.9 kmh 29.29 in991.9 mb - 0.00 in0.0 mm 0.01 in0.3 mm
11:40 PM 46.0°F7.8°C 38.5°F3.6°C 75% 15.0 mph E24.1 kmh E 19.6 mph31.5 kmh 29.29 in991.9 mb - 0.00 in0.0 mm 0.01 in0.3 mm
11:45 PM 45.9°F7.7°C 38.4°F3.6°C 75% 15.0 mph E24.1 kmh E 19.6 mph31.5 kmh 29.29 in991.9 mb - 0.00 in0.0 mm 0.01 in0.3 mm
11:50 PM 45.9°F7.7°C 38.4°F3.6°C 75% 15.0 mph E24.1 kmh E 19.6 mph31.5 kmh 29.29 in991.9 mb - 0.00 in0.0 mm 0.01 in0.3 mm
11:55 PM 45.8°F7.7°C 38.3°F3.5°C 75% 12.7 mph ESE20.4 kmh ESE 15.0 mph24.1 kmh 29.29 in991.9 mb - 0.00 in0.0 mm 0.01 in0.3 mm